sensor_id;sensor_type;location;lat;lon;timestamp;temperature;humidity
20013;DHT22;76844;42.852;23.042;2024-02-28T00:02:00;6.30;71.70
20013;DHT22;76844;42.852;23.042;2024-02-28T00:04:30;6.20;72.10
20013;DHT22;76844;42.852;23.042;2024-02-28T00:07:00;6.10;72.30
20013;DHT22;76844;42.852;23.042;2024-02-28T00:09:30;6.10;72.60
20013;DHT22;76844;42.852;23.042;2024-02-28T00:12:00;6.00;72.70
20013;DHT22;76844;42.852;23.042;2024-02-28T00:14:32;6.00;73.60
20013;DHT22;76844;42.852;23.042;2024-02-28T00:17:04;5.90;74.40
20013;DHT22;76844;42.852;23.042;2024-02-28T00:19:33;5.90;73.90
20013;DHT22;76844;42.852;23.042;2024-02-28T00:22:04;5.90;73.70
20013;DHT22;76844;42.852;23.042;2024-02-28T00:24:33;5.90;73.60
20013;DHT22;76844;42.852;23.042;2024-02-28T00:27:03;5.80;73.50
20013;DHT22;76844;42.852;23.042;2024-02-28T00:29:35;5.80;73.10
20013;DHT22;76844;42.852;23.042;2024-02-28T00:32:06;5.70;73.40
20013;DHT22;76844;42.852;23.042;2024-02-28T00:34:36;5.60;73.30
20013;DHT22;76844;42.852;23.042;2024-02-28T00:37:09;5.60;73.60
20013;DHT22;76844;42.852;23.042;2024-02-28T00:39:44;5.50;73.90
20013;DHT22;76844;42.852;23.042;2024-02-28T00:42:14;5.40;74.20
20013;DHT22;76844;42.852;23.042;2024-02-28T00:44:44;5.30;74.50
20013;DHT22;76844;42.852;23.042;2024-02-28T00:47:16;5.30;75.20
20013;DHT22;76844;42.852;23.042;2024-02-28T00:49:45;5.20;74.70
20013;DHT22;76844;42.852;23.042;2024-02-28T00:52:15;5.20;74.90
20013;DHT22;76844;42.852;23.042;2024-02-28T00:54:44;5.10;74.80
20013;DHT22;76844;42.852;23.042;2024-02-28T00:57:15;5.00;76.80
20013;DHT22;76844;42.852;23.042;2024-02-28T00:59:45;4.90;77.70
20013;DHT22;76844;42.852;23.042;2024-02-28T01:02:16;5.00;76.70
20013;DHT22;76844;42.852;23.042;2024-02-28T01:04:46;5.00;77.30
20013;DHT22;76844;42.852;23.042;2024-02-28T01:07:16;5.10;76.60
20013;DHT22;76844;42.852;23.042;2024-02-28T01:09:46;5.00;77.00
20013;DHT22;76844;42.852;23.042;2024-02-28T01:12:16;5.00;76.70
20013;DHT22;76844;42.852;23.042;2024-02-28T01:14:46;5.00;77.50
20013;DHT22;76844;42.852;23.042;2024-02-28T01:17:17;5.00;77.40
20013;DHT22;76844;42.852;23.042;2024-02-28T01:19:47;5.00;77.30
20013;DHT22;76844;42.852;23.042;2024-02-28T01:22:17;5.00;77.00
20013;DHT22;76844;42.852;23.042;2024-02-28T01:24:47;5.00;77.80
20013;DHT22;76844;42.852;23.042;2024-02-28T01:27:17;5.00;77.60
20013;DHT22;76844;42.852;23.042;2024-02-28T01:29:47;5.00;77.30
20013;DHT22;76844;42.852;23.042;2024-02-28T01:32:19;5.00;77.60
20013;DHT22;76844;42.852;23.042;2024-02-28T01:34:48;5.00;77.20
20013;DHT22;76844;42.852;23.042;2024-02-28T01:37:17;5.00;77.40
20013;DHT22;76844;42.852;23.042;2024-02-28T01:39:47;5.00;77.90
20013;DHT22;76844;42.852;23.042;2024-02-28T01:42:19;4.90;77.50
20013;DHT22;76844;42.852;23.042;2024-02-28T01:44:49;4.90;77.50
20013;DHT22;76844;42.852;23.042;2024-02-28T01:47:21;4.70;78.70
20013;DHT22;76844;42.852;23.042;2024-02-28T01:49:50;4.80;77.80
20013;DHT22;76844;42.852;23.042;2024-02-28T01:52:22;4.70;77.50
20013;DHT22;76844;42.852;23.042;2024-02-28T01:54:53;4.70;78.60
20013;DHT22;76844;42.852;23.042;2024-02-28T01:57:24;4.80;78.10
20013;DHT22;76844;42.852;23.042;2024-02-28T01:59:55;4.70;78.90
20013;DHT22;76844;42.852;23.042;2024-02-28T02:02:27;4.70;77.90
20013;DHT22;76844;42.852;23.042;2024-02-28T02:04:57;4.70;77.90
20013;DHT22;76844;42.852;23.042;2024-02-28T02:07:28;4.70;78.80
20013;DHT22;76844;42.852;23.042;2024-02-28T02:09:58;4.70;78.10
20013;DHT22;76844;42.852;23.042;2024-02-28T02:12:28;4.70;78.60
20013;DHT22;76844;42.852;23.042;2024-02-28T02:15:01;4.70;78.00
20013;DHT22;76844;42.852;23.042;2024-02-28T02:17:32;4.50;79.60
20013;DHT22;76844;42.852;23.042;2024-02-28T02:20:02;4.40;80.50
20013;DHT22;76844;42.852;23.042;2024-02-28T02:22:37;4.30;80.70
20013;DHT22;76844;42.852;23.042;2024-02-28T02:25:08;4.40;79.70
20013;DHT22;76844;42.852;23.042;2024-02-28T02:27:38;4.30;79.80
20013;DHT22;76844;42.852;23.042;2024-02-28T02:30:09;4.30;79.80
20013;DHT22;76844;42.852;23.042;2024-02-28T02:32:40;4.40;79.00
20013;DHT22;76844;42.852;23.042;2024-02-28T02:35:10;4.40;78.70
20013;DHT22;76844;42.852;23.042;2024-02-28T02:37:45;4.50;78.70
20013;DHT22;76844;42.852;23.042;2024-02-28T02:40:16;4.50;77.90
20013;DHT22;76844;42.852;23.042;2024-02-28T02:42:46;4.40;78.30
20013;DHT22;76844;42.852;23.042;2024-02-28T02:45:16;4.40;78.20
20013;DHT22;76844;42.852;23.042;2024-02-28T02:47:47;4.40;78.20
20013;DHT22;76844;42.852;23.042;2024-02-28T02:50:16;4.30;78.00
20013;DHT22;76844;42.852;23.042;2024-02-28T02:52:47;4.20;78.40
20013;DHT22;76844;42.852;23.042;2024-02-28T02:55:17;4.10;79.60
20013;DHT22;76844;42.852;23.042;2024-02-28T02:57:47;4.00;80.50
20013;DHT22;76844;42.852;23.042;2024-02-28T03:00:17;4.00;79.70
20013;DHT22;76844;42.852;23.042;2024-02-28T03:02:46;4.10;79.30
20013;DHT22;76844;42.852;23.042;2024-02-28T03:05:16;4.10;79.10
20013;DHT22;76844;42.852;23.042;2024-02-28T03:07:47;4.20;78.80
20013;DHT22;76844;42.852;23.042;2024-02-28T03:10:17;4.20;78.30
20013;DHT22;76844;42.852;23.042;2024-02-28T03:12:46;4.10;78.40
20013;DHT22;76844;42.852;23.042;2024-02-28T03:15:16;4.10;78.50
20013;DHT22;76844;42.852;23.042;2024-02-28T03:17:46;4.10;78.60
20013;DHT22;76844;42.852;23.042;2024-02-28T03:20:16;4.10;78.50
20013;DHT22;76844;42.852;23.042;2024-02-28T03:22:48;4.00;78.90
20013;DHT22;76844;42.852;23.042;2024-02-28T03:25:17;4.10;78.70
20013;DHT22;76844;42.852;23.042;2024-02-28T03:27:47;4.10;78.70
20013;DHT22;76844;42.852;23.042;2024-02-28T03:30:17;4.10;78.30
20013;DHT22;76844;42.852;23.042;2024-02-28T03:32:47;4.00;79.30
20013;DHT22;76844;42.852;23.042;2024-02-28T03:35:18;4.00;78.70
20013;DHT22;76844;42.852;23.042;2024-02-28T03:37:49;4.00;78.60
20013;DHT22;76844;42.852;23.042;2024-02-28T03:40:18;3.90;78.80
20013;DHT22;76844;42.852;23.042;2024-02-28T03:42:48;3.80;80.10
20013;DHT22;76844;42.852;23.042;2024-02-28T03:45:17;3.80;79.10
20013;DHT22;76844;42.852;23.042;2024-02-28T03:47:48;3.80;79.60
20013;DHT22;76844;42.852;23.042;2024-02-28T03:50:18;3.60;80.40
20013;DHT22;76844;42.852;23.042;2024-02-28T03:52:50;3.70;79.80
20013;DHT22;76844;42.852;23.042;2024-02-28T03:55:19;3.70;79.60
20013;DHT22;76844;42.852;23.042;2024-02-28T03:57:49;3.70;79.60
20013;DHT22;76844;42.852;23.042;2024-02-28T04:00:20;3.70;79.20
20013;DHT22;76844;42.852;23.042;2024-02-28T04:02:50;3.70;79.40
20013;DHT22;76844;42.852;23.042;2024-02-28T04:05:20;3.70;79.20
20013;DHT22;76844;42.852;23.042;2024-02-28T04:07:52;3.70;79.10
20013;DHT22;76844;42.852;23.042;2024-02-28T04:10:22;3.70;79.30
20013;DHT22;76844;42.852;23.042;2024-02-28T04:12:52;3.70;79.50
20013;DHT22;76844;42.852;23.042;2024-02-28T04:15:21;3.60;79.40
20013;DHT22;76844;42.852;23.042;2024-02-28T04:17:54;3.60;79.30
20013;DHT22;76844;42.852;23.042;2024-02-28T04:20:24;3.60;79.90
20013;DHT22;76844;42.852;23.042;2024-02-28T04:22:55;3.60;79.60
20013;DHT22;76844;42.852;23.042;2024-02-28T04:25:25;3.60;79.40
20013;DHT22;76844;42.852;23.042;2024-02-28T04:27:54;3.50;80.20
20013;DHT22;76844;42.852;23.042;2024-02-28T04:30:25;3.60;79.80
20013;DHT22;76844;42.852;23.042;2024-02-28T04:32:55;3.60;79.50
20013;DHT22;76844;42.852;23.042;2024-02-28T04:35:24;3.60;79.80
20013;DHT22;76844;42.852;23.042;2024-02-28T04:37:55;3.60;80.40
20013;DHT22;76844;42.852;23.042;2024-02-28T04:40:25;3.60;79.90
20013;DHT22;76844;42.852;23.042;2024-02-28T04:42:54;3.60;79.70
20013;DHT22;76844;42.852;23.042;2024-02-28T04:45:24;3.60;80.60
20013;DHT22;76844;42.852;23.042;2024-02-28T04:47:54;3.60;81.00
20013;DHT22;76844;42.852;23.042;2024-02-28T04:50:24;3.60;80.60
20013;DHT22;76844;42.852;23.042;2024-02-28T04:52:56;3.40;83.00
20013;DHT22;76844;42.852;23.042;2024-02-28T04:55:26;3.40;82.40
20013;DHT22;76844;42.852;23.042;2024-02-28T04:57:56;3.50;82.10
20013;DHT22;76844;42.852;23.042;2024-02-28T05:00:26;3.60;81.70
20013;DHT22;76844;42.852;23.042;2024-02-28T05:02:56;3.60;82.80
20013;DHT22;76844;42.852;23.042;2024-02-28T05:05:25;3.70;81.90
20013;DHT22;76844;42.852;23.042;2024-02-28T05:07:56;3.70;81.20
20013;DHT22;76844;42.852;23.042;2024-02-28T05:10:26;3.60;82.60
20013;DHT22;76844;42.852;23.042;2024-02-28T05:12:56;3.70;81.30
20013;DHT22;76844;42.852;23.042;2024-02-28T05:15:25;3.70;81.00
20013;DHT22;76844;42.852;23.042;2024-02-28T05:17:55;3.80;80.90
20013;DHT22;76844;42.852;23.042;2024-02-28T05:20:24;3.80;81.40
20013;DHT22;76844;42.852;23.042;2024-02-28T05:22:55;3.90;80.90
20013;DHT22;76844;42.852;23.042;2024-02-28T05:25:25;3.90;80.80
20013;DHT22;76844;42.852;23.042;2024-02-28T05:27:54;3.90;80.70
20013;DHT22;76844;42.852;23.042;2024-02-28T05:30:24;4.00;80.90
20013;DHT22;76844;42.852;23.042;2024-02-28T05:32:53;4.10;80.90
20013;DHT22;76844;42.852;23.042;2024-02-28T05:35:23;4.10;81.10
20013;DHT22;76844;42.852;23.042;2024-02-28T05:37:53;4.10;81.40
20013;DHT22;76844;42.852;23.042;2024-02-28T05:40:25;4.20;81.80
20013;DHT22;76844;42.852;23.042;2024-02-28T05:42:55;4.30;81.40
20013;DHT22;76844;42.852;23.042;2024-02-28T05:45:24;4.40;81.50
20013;DHT22;76844;42.852;23.042;2024-02-28T05:47:54;4.50;81.80
20013;DHT22;76844;42.852;23.042;2024-02-28T05:50:24;4.60;81.70
20013;DHT22;76844;42.852;23.042;2024-02-28T05:52:54;4.70;81.50
20013;DHT22;76844;42.852;23.042;2024-02-28T05:55:25;4.80;81.50
20013;DHT22;76844;42.852;23.042;2024-02-28T05:57:56;5.00;81.10
20013;DHT22;76844;42.852;23.042;2024-02-28T06:00:26;5.10;80.90
20013;DHT22;76844;42.852;23.042;2024-02-28T06:02:56;5.30;80.80
20013;DHT22;76844;42.852;23.042;2024-02-28T06:05:26;5.60;80.60
20013;DHT22;76844;42.852;23.042;2024-02-28T06:07:55;5.70;80.50
20013;DHT22;76844;42.852;23.042;2024-02-28T06:10:27;6.00;80.20
20013;DHT22;76844;42.852;23.042;2024-02-28T06:13:00;6.20;80.10
20013;DHT22;76844;42.852;23.042;2024-02-28T06:15:30;6.30;79.40
20013;DHT22;76844;42.852;23.042;2024-02-28T06:18:00;6.40;78.90
20013;DHT22;76844;42.852;23.042;2024-02-28T06:20:30;6.60;78.60
20013;DHT22;76844;42.852;23.042;2024-02-28T06:23:00;6.90;77.80
20013;DHT22;76844;42.852;23.042;2024-02-28T06:25:44;7.10;77.00
20013;DHT22;76844;42.852;23.042;2024-02-28T06:28:14;7.30;76.50
20013;DHT22;76844;42.852;23.042;2024-02-28T06:30:43;7.60;77.20
20013;DHT22;76844;42.852;23.042;2024-02-28T06:33:14;7.90;77.30
20013;DHT22;76844;42.852;23.042;2024-02-28T06:35:43;8.20;76.70
20013;DHT22;76844;42.852;23.042;2024-02-28T06:38:13;8.50;76.50
20013;DHT22;76844;42.852;23.042;2024-02-28T06:40:45;8.70;75.80
20013;DHT22;76844;42.852;23.042;2024-02-28T06:43:14;8.80;75.30
20013;DHT22;76844;42.852;23.042;2024-02-28T06:45:45;8.90;74.50
20013;DHT22;76844;42.852;23.042;2024-02-28T06:48:15;8.90;74.10
20013;DHT22;76844;42.852;23.042;2024-02-28T06:50:44;8.90;73.80
20013;DHT22;76844;42.852;23.042;2024-02-28T06:53:15;8.80;74.10
20013;DHT22;76844;42.852;23.042;2024-02-28T06:55:46;8.80;74.40
20013;DHT22;76844;42.852;23.042;2024-02-28T06:58:17;8.80;75.10
20013;DHT22;76844;42.852;23.042;2024-02-28T07:00:47;8.80;74.70
20013;DHT22;76844;42.852;23.042;2024-02-28T07:03:21;9.00;75.10
20013;DHT22;76844;42.852;23.042;2024-02-28T07:05:52;9.10;75.00
20013;DHT22;76844;42.852;23.042;2024-02-28T07:08:22;9.40;74.20
20013;DHT22;76844;42.852;23.042;2024-02-28T07:10:54;9.70;73.70
20013;DHT22;76844;42.852;23.042;2024-02-28T07:13:24;9.90;73.00
20013;DHT22;76844;42.852;23.042;2024-02-28T07:15:55;10.20;73.00
20013;DHT22;76844;42.852;23.042;2024-02-28T07:18:25;10.60;71.30
20013;DHT22;76844;42.852;23.042;2024-02-28T07:20:57;11.00;70.70
20013;DHT22;76844;42.852;23.042;2024-02-28T07:23:26;11.50;69.80
20013;DHT22;76844;42.852;23.042;2024-02-28T07:25:57;11.80;68.50
20013;DHT22;76844;42.852;23.042;2024-02-28T07:28:41;12.00;67.90
20013;DHT22;76844;42.852;23.042;2024-02-28T07:31:14;12.90;67.60
20013;DHT22;76844;42.852;23.042;2024-02-28T07:33:44;13.00;65.10
20013;DHT22;76844;42.852;23.042;2024-02-28T07:36:15;13.90;65.00
20013;DHT22;76844;42.852;23.042;2024-02-28T07:38:45;14.40;63.10
20013;DHT22;76844;42.852;23.042;2024-02-28T07:41:17;14.70;61.40
20013;DHT22;76844;42.852;23.042;2024-02-28T07:43:46;14.10;60.90
20013;DHT22;76844;42.852;23.042;2024-02-28T07:46:16;13.80;61.80
20013;DHT22;76844;42.852;23.042;2024-02-28T07:48:47;13.40;62.60
20013;DHT22;76844;42.852;23.042;2024-02-28T07:51:17;13.00;63.70
20013;DHT22;76844;42.852;23.042;2024-02-28T07:53:47;13.10;64.30
20013;DHT22;76844;42.852;23.042;2024-02-28T07:56:18;12.90;64.90
20013;DHT22;76844;42.852;23.042;2024-02-28T07:58:48;12.70;65.30
20013;DHT22;76844;42.852;23.042;2024-02-28T08:01:17;12.40;66.20
20013;DHT22;76844;42.852;23.042;2024-02-28T08:03:47;12.40;66.60
20013;DHT22;76844;42.852;23.042;2024-02-28T08:06:18;12.20;67.00
20013;DHT22;76844;42.852;23.042;2024-02-28T08:08:47;12.20;68.10
20013;DHT22;76844;42.852;23.042;2024-02-28T08:11:18;12.20;67.80
20013;DHT22;76844;42.852;23.042;2024-02-28T08:13:48;12.10;67.70
20013;DHT22;76844;42.852;23.042;2024-02-28T08:16:19;12.10;67.90
20013;DHT22;76844;42.852;23.042;2024-02-28T08:18:48;12.20;68.10
20013;DHT22;76844;42.852;23.042;2024-02-28T08:21:18;12.30;67.70
20013;DHT22;76844;42.852;23.042;2024-02-28T08:23:50;12.20;67.50
20013;DHT22;76844;42.852;23.042;2024-02-28T08:26:21;12.20;67.60
20013;DHT22;76844;42.852;23.042;2024-02-28T08:28:50;12.20;67.80
20013;DHT22;76844;42.852;23.042;2024-02-28T08:31:21;12.20;68.00
20013;DHT22;76844;42.852;23.042;2024-02-28T08:33:51;12.10;67.90
20013;DHT22;76844;42.852;23.042;2024-02-28T08:36:23;12.10;68.10
20013;DHT22;76844;42.852;23.042;2024-02-28T08:38:53;12.50;68.10
20013;DHT22;76844;42.852;23.042;2024-02-28T08:41:24;12.80;66.90
20013;DHT22;76844;42.852;23.042;2024-02-28T08:43:55;12.90;66.10
20013;DHT22;76844;42.852;23.042;2024-02-28T08:46:24;13.10;65.80
20013;DHT22;76844;42.852;23.042;2024-02-28T08:48:54;13.50;65.30
20013;DHT22;76844;42.852;23.042;2024-02-28T08:51:24;13.80;63.90
20013;DHT22;76844;42.852;23.042;2024-02-28T08:53:55;14.10;63.20
20013;DHT22;76844;42.852;23.042;2024-02-28T08:56:29;14.40;62.70
20013;DHT22;76844;42.852;23.042;2024-02-28T08:58:58;14.90;61.30
20013;DHT22;76844;42.852;23.042;2024-02-28T09:01:30;15.30;60.30
20013;DHT22;76844;42.852;23.042;2024-02-28T09:04:02;15.20;59.00
20013;DHT22;76844;42.852;23.042;2024-02-28T09:06:33;15.20;59.60
20013;DHT22;76844;42.852;23.042;2024-02-28T09:09:03;15.40;59.60
20013;DHT22;76844;42.852;23.042;2024-02-28T09:11:36;15.60;59.40
20013;DHT22;76844;42.852;23.042;2024-02-28T09:14:07;15.60;57.70
20013;DHT22;76844;42.852;23.042;2024-02-28T09:16:37;15.30;57.40
20013;DHT22;76844;42.852;23.042;2024-02-28T09:19:08;15.00;58.40
20013;DHT22;76844;42.852;23.042;2024-02-28T09:21:38;14.40;59.70
20013;DHT22;76844;42.852;23.042;2024-02-28T09:24:08;14.30;60.90
20013;DHT22;76844;42.852;23.042;2024-02-28T09:26:41;14.20;61.40
20013;DHT22;76844;42.852;23.042;2024-02-28T09:29:11;14.10;61.80
20013;DHT22;76844;42.852;23.042;2024-02-28T09:31:41;14.10;62.20
20013;DHT22;76844;42.852;23.042;2024-02-28T09:34:11;14.00;62.10
20013;DHT22;76844;42.852;23.042;2024-02-28T09:36:41;14.10;62.40
20013;DHT22;76844;42.852;23.042;2024-02-28T09:39:18;14.40;62.20
20013;DHT22;76844;42.852;23.042;2024-02-28T09:41:51;14.90;62.00
20013;DHT22;76844;42.852;23.042;2024-02-28T09:44:22;15.30;60.70
20013;DHT22;76844;42.852;23.042;2024-02-28T09:46:53;15.80;58.60
20013;DHT22;76844;42.852;23.042;2024-02-28T09:49:25;16.00;57.80
20013;DHT22;76844;42.852;23.042;2024-02-28T09:51:57;16.00;56.90
20013;DHT22;76844;42.852;23.042;2024-02-28T09:54:28;15.70;56.70
20013;DHT22;76844;42.852;23.042;2024-02-28T09:57:05;15.60;57.50
20013;DHT22;76844;42.852;23.042;2024-02-28T09:59:38;15.50;58.00
20013;DHT22;76844;42.852;23.042;2024-02-28T10:02:21;15.40;58.00
20013;DHT22;76844;42.852;23.042;2024-02-28T10:04:52;15.10;58.50
20013;DHT22;76844;42.852;23.042;2024-02-28T10:07:24;15.00;58.60
20013;DHT22;76844;42.852;23.042;2024-02-28T10:09:53;15.00;59.30
20013;DHT22;76844;42.852;23.042;2024-02-28T10:12:26;15.20;59.30
20013;DHT22;76844;42.852;23.042;2024-02-28T10:14:55;15.30;58.20
20013;DHT22;76844;42.852;23.042;2024-02-28T10:17:25;15.40;58.20
20013;DHT22;76844;42.852;23.042;2024-02-28T10:19:58;15.50;57.70
20013;DHT22;76844;42.852;23.042;2024-02-28T10:22:34;15.60;57.90
20013;DHT22;76844;42.852;23.042;2024-02-28T10:25:05;15.90;57.70
20013;DHT22;76844;42.852;23.042;2024-02-28T10:27:37;16.20;54.60
20013;DHT22;76844;42.852;23.042;2024-02-28T10:30:08;16.70;53.60
20013;DHT22;76844;42.852;23.042;2024-02-28T10:32:48;17.00;53.50
20013;DHT22;76844;42.852;23.042;2024-02-28T10:35:18;17.20;53.30
20013;DHT22;76844;42.852;23.042;2024-02-28T10:37:53;17.60;52.30
20013;DHT22;76844;42.852;23.042;2024-02-28T10:40:24;18.00;51.50
20013;DHT22;76844;42.852;23.042;2024-02-28T10:42:56;18.10;49.80
20013;DHT22;76844;42.852;23.042;2024-02-28T10:45:27;18.80;49.00
20013;DHT22;76844;42.852;23.042;2024-02-28T10:48:20;19.10;47.00
20013;DHT22;76844;42.852;23.042;2024-02-28T10:50:51;19.70;44.70
20013;DHT22;76844;42.852;23.042;2024-02-28T10:53:29;20.00;45.20
20013;DHT22;76844;42.852;23.042;2024-02-28T10:56:03;20.30;44.80
20013;DHT22;76844;42.852;23.042;2024-02-28T10:58:36;20.60;43.70
20013;DHT22;76844;42.852;23.042;2024-02-28T11:01:08;20.70;43.10
20013;DHT22;76844;42.852;23.042;2024-02-28T11:03:38;21.00;43.20
20013;DHT22;76844;42.852;23.042;2024-02-28T11:06:17;21.00;41.40
20013;DHT22;76844;42.852;23.042;2024-02-28T11:08:49;20.70;41.60
20013;DHT22;76844;42.852;23.042;2024-02-28T11:11:22;20.50;42.50
20013;DHT22;76844;42.852;23.042;2024-02-28T11:13:55;20.70;43.10
20013;DHT22;76844;42.852;23.042;2024-02-28T11:16:28;21.00;42.40
20013;DHT22;76844;42.852;23.042;2024-02-28T11:18:59;20.80;41.20
20013;DHT22;76844;42.852;23.042;2024-02-28T11:21:35;21.20;40.30
20013;DHT22;76844;42.852;23.042;2024-02-28T11:24:05;21.60;40.10
20013;DHT22;76844;42.852;23.042;2024-02-28T11:26:37;21.50;38.60
20013;DHT22;76844;42.852;23.042;2024-02-28T11:29:09;21.30;40.00
20013;DHT22;76844;42.852;23.042;2024-02-28T11:31:39;20.40;39.70
20013;DHT22;76844;42.852;23.042;2024-02-28T11:34:10;20.10;41.30
20013;DHT22;76844;42.852;23.042;2024-02-28T11:36:41;19.30;42.70
20013;DHT22;76844;42.852;23.042;2024-02-28T11:39:13;18.50;44.00
20013;DHT22;76844;42.852;23.042;2024-02-28T11:41:43;18.30;45.10
20013;DHT22;76844;42.852;23.042;2024-02-28T11:44:17;18.20;46.00
20013;DHT22;76844;42.852;23.042;2024-02-28T11:46:49;17.90;46.30
20013;DHT22;76844;42.852;23.042;2024-02-28T11:49:19;17.90;46.70
20013;DHT22;76844;42.852;23.042;2024-02-28T11:51:53;17.90;47.00
20013;DHT22;76844;42.852;23.042;2024-02-28T11:54:25;17.90;46.90
20013;DHT22;76844;42.852;23.042;2024-02-28T11:56:55;18.00;46.80
20013;DHT22;76844;42.852;23.042;2024-02-28T11:59:29;18.00;47.30
20013;DHT22;76844;42.852;23.042;2024-02-28T12:02:10;18.50;46.60
20013;DHT22;76844;42.852;23.042;2024-02-28T12:04:42;19.00;45.40
20013;DHT22;76844;42.852;23.042;2024-02-28T12:07:13;18.80;44.30
20013;DHT22;76844;42.852;23.042;2024-02-28T12:09:44;18.60;44.30
20013;DHT22;76844;42.852;23.042;2024-02-28T12:12:14;18.40;44.80
20013;DHT22;76844;42.852;23.042;2024-02-28T12:14:46;18.30;45.90
20013;DHT22;76844;42.852;23.042;2024-02-28T12:17:16;18.80;45.60
20013;DHT22;76844;42.852;23.042;2024-02-28T12:19:47;19.40;44.60
20013;DHT22;76844;42.852;23.042;2024-02-28T12:22:21;19.30;43.60
20013;DHT22;76844;42.852;23.042;2024-02-28T12:24:52;19.00;43.60
20013;DHT22;76844;42.852;23.042;2024-02-28T12:27:22;18.90;44.00
20013;DHT22;76844;42.852;23.042;2024-02-28T12:29:53;18.50;44.50
20013;DHT22;76844;42.852;23.042;2024-02-28T12:32:23;18.10;44.80
20013;DHT22;76844;42.852;23.042;2024-02-28T12:34:53;18.00;45.30
20013;DHT22;76844;42.852;23.042;2024-02-28T12:37:24;17.90;45.90
20013;DHT22;76844;42.852;23.042;2024-02-28T12:39:54;17.80;45.80
20013;DHT22;76844;42.852;23.042;2024-02-28T12:42:23;17.60;46.30
20013;DHT22;76844;42.852;23.042;2024-02-28T12:44:54;17.50;46.30
20013;DHT22;76844;42.852;23.042;2024-02-28T12:47:24;17.50;47.00
20013;DHT22;76844;42.852;23.042;2024-02-28T12:49:53;17.40;46.30
20013;DHT22;76844;42.852;23.042;2024-02-28T12:52:23;17.50;47.00
20013;DHT22;76844;42.852;23.042;2024-02-28T12:54:54;17.60;45.80
20013;DHT22;76844;42.852;23.042;2024-02-28T12:57:24;17.80;46.80
20013;DHT22;76844;42.852;23.042;2024-02-28T12:59:56;17.90;46.50
20013;DHT22;76844;42.852;23.042;2024-02-28T13:02:26;18.00;45.70
20013;DHT22;76844;42.852;23.042;2024-02-28T13:04:55;18.30;45.60
20013;DHT22;76844;42.852;23.042;2024-02-28T13:07:25;18.50;45.40
20013;DHT22;76844;42.852;23.042;2024-02-28T13:09:58;18.50;44.70
20013;DHT22;76844;42.852;23.042;2024-02-28T13:12:30;18.50;45.20
20013;DHT22;76844;42.852;23.042;2024-02-28T13:15:02;18.30;45.00
20013;DHT22;76844;42.852;23.042;2024-02-28T13:17:33;18.10;44.90
20013;DHT22;76844;42.852;23.042;2024-02-28T13:20:04;18.20;45.40
20013;DHT22;76844;42.852;23.042;2024-02-28T13:22:36;18.00;45.30
20013;DHT22;76844;42.852;23.042;2024-02-28T13:25:06;17.90;46.10
20013;DHT22;76844;42.852;23.042;2024-02-28T13:27:36;17.90;46.10
20013;DHT22;76844;42.852;23.042;2024-02-28T13:30:08;18.00;46.10
20013;DHT22;76844;42.852;23.042;2024-02-28T13:32:40;17.70;45.90
20013;DHT22;76844;42.852;23.042;2024-02-28T13:35:13;17.60;46.40
20013;DHT22;76844;42.852;23.042;2024-02-28T13:37:45;17.40;46.90
20013;DHT22;76844;42.852;23.042;2024-02-28T13:40:15;17.40;47.10
20013;DHT22;76844;42.852;23.042;2024-02-28T13:42:45;17.40;47.10
20013;DHT22;76844;42.852;23.042;2024-02-28T13:45:16;17.30;46.70
20013;DHT22;76844;42.852;23.042;2024-02-28T13:47:46;17.30;46.40
20013;DHT22;76844;42.852;23.042;2024-02-28T13:50:16;17.20;46.30
20013;DHT22;76844;42.852;23.042;2024-02-28T13:52:46;17.10;46.40
20013;DHT22;76844;42.852;23.042;2024-02-28T13:55:17;17.00;47.60
20013;DHT22;76844;42.852;23.042;2024-02-28T13:57:47;16.80;46.70
20013;DHT22;76844;42.852;23.042;2024-02-28T14:00:19;16.70;46.30
20013;DHT22;76844;42.852;23.042;2024-02-28T14:02:51;16.70;46.80
20013;DHT22;76844;42.852;23.042;2024-02-28T14:05:21;16.70;47.00
20013;DHT22;76844;42.852;23.042;2024-02-28T14:07:50;16.70;47.30
20013;DHT22;76844;42.852;23.042;2024-02-28T14:10:20;16.80;47.20
20013;DHT22;76844;42.852;23.042;2024-02-28T14:12:53;16.60;46.90
20013;DHT22;76844;42.852;23.042;2024-02-28T14:15:25;16.60;47.60
20013;DHT22;76844;42.852;23.042;2024-02-28T14:17:56;16.60;47.70
20013;DHT22;76844;42.852;23.042;2024-02-28T14:20:27;16.50;47.60
20013;DHT22;76844;42.852;23.042;2024-02-28T14:22:57;16.50;47.30
20013;DHT22;76844;42.852;23.042;2024-02-28T14:25:28;16.50;47.50
20013;DHT22;76844;42.852;23.042;2024-02-28T14:27:58;16.50;47.90
20013;DHT22;76844;42.852;23.042;2024-02-28T14:30:30;16.50;47.70
20013;DHT22;76844;42.852;23.042;2024-02-28T14:33:02;16.40;47.20
20013;DHT22;76844;42.852;23.042;2024-02-28T14:35:36;16.50;47.60
20013;DHT22;76844;42.852;23.042;2024-02-28T14:38:08;16.50;48.00
20013;DHT22;76844;42.852;23.042;2024-02-28T14:40:38;16.50;47.50
20013;DHT22;76844;42.852;23.042;2024-02-28T14:43:09;16.40;47.70
20013;DHT22;76844;42.852;23.042;2024-02-28T14:45:40;16.40;47.50
20013;DHT22;76844;42.852;23.042;2024-02-28T14:48:11;16.30;47.70
20013;DHT22;76844;42.852;23.042;2024-02-28T14:50:42;16.30;47.90
20013;DHT22;76844;42.852;23.042;2024-02-28T14:53:12;16.20;48.00
20013;DHT22;76844;42.852;23.042;2024-02-28T14:55:44;16.30;48.20
20013;DHT22;76844;42.852;23.042;2024-02-28T14:58:15;16.20;47.90
20013;DHT22;76844;42.852;23.042;2024-02-28T15:00:47;16.20;48.20
20013;DHT22;76844;42.852;23.042;2024-02-28T15:03:17;16.20;48.10
20013;DHT22;76844;42.852;23.042;2024-02-28T15:05:49;16.20;48.40
20013;DHT22;76844;42.852;23.042;2024-02-28T15:08:20;16.20;48.80
20013;DHT22;76844;42.852;23.042;2024-02-28T15:10:52;16.10;49.10
20013;DHT22;76844;42.852;23.042;2024-02-28T15:13:22;16.00;49.50
20013;DHT22;76844;42.852;23.042;2024-02-28T15:15:54;15.90;50.10
20013;DHT22;76844;42.852;23.042;2024-02-28T15:18:24;15.90;50.00
20013;DHT22;76844;42.852;23.042;2024-02-28T15:20:53;15.90;50.20
20013;DHT22;76844;42.852;23.042;2024-02-28T15:23:29;15.90;51.10
20013;DHT22;76844;42.852;23.042;2024-02-28T15:26:00;15.80;50.50
20013;DHT22;76844;42.852;23.042;2024-02-28T15:28:30;15.80;50.70
20013;DHT22;76844;42.852;23.042;2024-02-28T15:31:03;15.80;50.90
20013;DHT22;76844;42.852;23.042;2024-02-28T15:33:34;15.80;51.10
20013;DHT22;76844;42.852;23.042;2024-02-28T15:36:04;15.80;51.20
20013;DHT22;76844;42.852;23.042;2024-02-28T15:38:35;15.70;51.40
20013;DHT22;76844;42.852;23.042;2024-02-28T15:41:04;15.70;51.60
20013;DHT22;76844;42.852;23.042;2024-02-28T15:43:35;15.60;51.80
20013;DHT22;76844;42.852;23.042;2024-02-28T15:46:06;15.50;52.00